sensor_id;sensor_type;location;lat;lon;timestamp;pressure;altitude;pressure_sealevel;temperature;humidity
42691;BME280;28306;55.744;37.578;2022-09-12T00:00:28;100069.91;;;16.86;38.80
42691;BME280;28306;55.744;37.578;2022-09-12T00:02:57;100078.63;;;16.88;38.74
42691;BME280;28306;55.744;37.578;2022-09-12T00:05:23;100084.19;;;16.87;38.68
42691;BME280;28306;55.744;37.578;2022-09-12T00:07:49;100073.81;;;16.84;39.05
42691;BME280;28306;55.744;37.578;2022-09-12T00:10:15;100083.34;;;16.86;38.73
42691;BME280;28306;55.744;37.578;2022-09-12T00:12:41;100075.28;;;16.86;38.79
42691;BME280;28306;55.744;37.578;2022-09-12T00:15:07;100061.38;;;16.76;38.79
42691;BME280;28306;55.744;37.578;2022-09-12T00:17:34;100077.31;;;16.84;38.78
42691;BME280;28306;55.744;37.578;2022-09-12T00:20:00;100063.88;;;16.84;38.78
42691;BME280;28306;55.744;37.578;2022-09-12T00:22:25;100061.78;;;16.80;38.93
42691;BME280;28306;55.744;37.578;2022-09-12T00:24:51;100059.53;;;16.83;38.92
42691;BME280;28306;55.744;37.578;2022-09-12T00:27:16;100052.72;;;16.81;38.83
42691;BME280;28306;55.744;37.578;2022-09-12T00:29:42;100057.03;;;16.82;38.86
42691;BME280;28306;55.744;37.578;2022-09-12T00:32:08;100050.03;;;16.81;38.90
42691;BME280;28306;55.744;37.578;2022-09-12T00:34:33;100057.88;;;16.82;38.92
42691;BME280;28306;55.744;37.578;2022-09-12T00:37:00;100047.94;;;16.76;38.77
42691;BME280;28306;55.744;37.578;2022-09-12T00:39:25;100053.94;;;16.78;38.85
42691;BME280;28306;55.744;37.578;2022-09-12T00:41:51;100051.88;;;16.80;38.98
42691;BME280;28306;55.744;37.578;2022-09-12T00:46:49;100041.31;;;16.72;39.03
42691;BME280;28306;55.744;37.578;2022-09-12T00:51:54;100042.16;;;16.79;38.88
42691;BME280;28306;55.744;37.578;2022-09-12T00:54:26;100046.72;;;16.79;38.89
42691;BME280;28306;55.744;37.578;2022-09-12T00:56:55;100040.50;;;16.78;38.91
42691;BME280;28306;55.744;37.578;2022-09-12T00:59:27;100051.44;;;16.76;38.92
42691;BME280;28306;55.744;37.578;2022-09-12T01:01:55;100044.44;;;16.75;38.98
42691;BME280;28306;55.744;37.578;2022-09-12T01:04:22;100044.44;;;16.75;39.09
42691;BME280;28306;55.744;37.578;2022-09-12T01:06:50;100031.19;;;16.74;38.94
42691;BME280;28306;55.744;37.578;2022-09-12T01:09:20;100036.56;;;16.74;39.02
42691;BME280;28306;55.744;37.578;2022-09-12T01:11:47;100029.72;;;16.71;38.76
42691;BME280;28306;55.744;37.578;2022-09-12T01:14:15;100029.53;;;16.73;39.00
42691;BME280;28306;55.744;37.578;2022-09-12T01:16:41;100008.84;;;16.60;38.90
42691;BME280;28306;55.744;37.578;2022-09-12T01:30:42;100028.50;;;16.74;39.04
42691;BME280;28306;55.744;37.578;2022-09-12T01:38:47;100034.28;;;16.71;39.14
42691;BME280;28306;55.744;37.578;2022-09-12T01:52:22;100029.31;;;16.68;39.03
42691;BME280;28306;55.744;37.578;2022-09-12T01:54:54;100025.16;;;16.65;39.22
42691;BME280;28306;55.744;37.578;2022-09-12T01:57:42;100018.53;;;16.61;39.14
42691;BME280;28306;55.744;37.578;2022-09-12T02:00:10;100001.13;;;16.50;39.19
42691;BME280;28306;55.744;37.578;2022-09-12T02:02:58;100022.88;;;16.62;39.22
42691;BME280;28306;55.744;37.578;2022-09-12T02:05:30;100019.38;;;16.62;39.16
42691;BME280;28306;55.744;37.578;2022-09-12T02:08:48;100017.28;;;16.57;39.29
42691;BME280;28306;55.744;37.578;2022-09-12T02:10:54;100023.91;;;16.61;39.19
42691;BME280;28306;55.744;37.578;2022-09-12T02:15:56;100020.59;;;16.59;39.36
42691;BME280;28306;55.744;37.578;2022-09-12T02:18:25;100026.16;;;16.57;39.28
42691;BME280;28306;55.744;37.578;2022-09-12T02:20:54;100022.00;;;16.55;39.32
42691;BME280;28306;55.744;37.578;2022-09-12T02:23:28;100022.47;;;16.58;39.24
42691;BME280;28306;55.744;37.578;2022-09-12T02:26:07;100025.97;;;16.59;39.27
42691;BME280;28306;55.744;37.578;2022-09-12T02:28:39;100009.38;;;16.49;39.25
42691;BME280;28306;55.744;37.578;2022-09-12T02:31:33;100024.09;;;16.60;39.38
42691;BME280;28306;55.744;37.578;2022-09-12T02:36:58;100016.25;;;16.58;39.46
42691;BME280;28306;55.744;37.578;2022-09-12T02:39:27;99981.47;;;16.36;39.26
42691;BME280;28306;55.744;37.578;2022-09-12T02:41:54;99996.78;;;16.43;39.33
42691;BME280;28306;55.744;37.578;2022-09-12T02:44:22;100015.00;;;16.54;39.38
42691;BME280;28306;55.744;37.578;2022-09-12T02:46:51;100016.03;;;16.53;39.27
42691;BME280;28306;55.744;37.578;2022-09-12T02:49:18;99989.13;;;16.39;39.27
42691;BME280;28306;55.744;37.578;2022-09-12T02:51:45;100005.06;;;16.48;39.32
42691;BME280;28306;55.744;37.578;2022-09-12T02:54:11;100012.31;;;16.54;39.33
42691;BME280;28306;55.744;37.578;2022-09-12T02:56:43;100019.31;;;16.55;39.31
42691;BME280;28306;55.744;37.578;2022-09-12T02:59:13;100006.47;;;16.44;39.30
42691;BME280;28306;55.744;37.578;2022-09-12T03:04:36;100023.47;;;16.57;39.51
42691;BME280;28306;55.744;37.578;2022-09-12T03:12:26;100020.38;;;16.54;39.33
42691;BME280;28306;55.744;37.578;2022-09-12T03:15:06;100016.03;;;16.53;39.46
42691;BME280;28306;55.744;37.578;2022-09-12T03:20:59;100023.69;;;16.56;39.17
42691;BME280;28306;55.744;37.578;2022-09-12T03:23:33;100019.31;;;16.55;39.22
42691;BME280;28306;55.744;37.578;2022-09-12T03:29:06;100012.50;;;16.46;39.30
42691;BME280;28306;55.744;37.578;2022-09-12T03:31:32;100027.78;;;16.52;39.39
42691;BME280;28306;55.744;37.578;2022-09-12T03:33:59;100026.53;;;16.48;39.28
42691;BME280;28306;55.744;37.578;2022-09-12T03:36:27;100028.84;;;16.51;39.46
42691;BME280;28306;55.744;37.578;2022-09-12T03:38:53;100030.47;;;16.52;39.35
42691;BME280;28306;55.744;37.578;2022-09-12T03:41:19;100019.91;;;16.44;39.30
42691;BME280;28306;55.744;37.578;2022-09-12T03:43:45;100021.16;;;16.48;39.22
42691;BME280;28306;55.744;37.578;2022-09-12T03:46:10;100030.66;;;16.50;39.35
42691;BME280;28306;55.744;37.578;2022-09-12T03:48:37;100015.59;;;16.49;39.42
42691;BME280;28306;55.744;37.578;2022-09-12T03:51:05;100020.97;;;16.49;39.44
42691;BME280;28306;55.744;37.578;2022-09-12T03:53:31;100020.97;;;16.49;39.28
42691;BME280;28306;55.744;37.578;2022-09-12T03:55:57;100003.16;;;16.42;39.23
42691;BME280;28306;55.744;37.578;2022-09-12T03:58:24;100006.47;;;16.44;39.49
42691;BME280;28306;55.744;37.578;2022-09-12T04:00:50;99996.13;;;16.40;39.34
42691;BME280;28306;55.744;37.578;2022-09-12T04:03:16;100010.22;;;16.49;39.28
42691;BME280;28306;55.744;37.578;2022-09-12T04:05:43;100010.84;;;16.51;39.41
42691;BME280;28306;55.744;37.578;2022-09-12T04:08:09;99986.44;;;16.39;39.26
42691;BME280;28306;55.744;37.578;2022-09-12T04:10:34;100012.50;;;16.52;39.17
42691;BME280;28306;55.744;37.578;2022-09-12T04:13:00;100010.66;;;16.53;39.35
42691;BME280;28306;55.744;37.578;2022-09-12T04:15:26;100009.63;;;16.54;39.35
42691;BME280;28306;55.744;37.578;2022-09-12T04:17:51;99997.41;;;16.45;39.30
42691;BME280;28306;55.744;37.578;2022-09-12T04:20:17;100015.81;;;16.54;39.33
42691;BME280;28306;55.744;37.578;2022-09-12T04:22:43;100016.03;;;16.53;39.16
42691;BME280;28306;55.744;37.578;2022-09-12T04:25:09;100012.31;;;16.54;39.27
42691;BME280;28306;55.744;37.578;2022-09-12T04:27:34;100012.31;;;16.54;39.27
42691;BME280;28306;55.744;37.578;2022-09-12T04:30:00;100017.69;;;16.54;39.24
42691;BME280;28306;55.744;37.578;2022-09-12T04:32:29;100021.19;;;16.54;39.33
42691;BME280;28306;55.744;37.578;2022-09-12T04:34:55;100000.09;;;16.45;39.36
42691;BME280;28306;55.744;37.578;2022-09-12T04:37:21;99989.94;;;16.40;39.33
42691;BME280;28306;55.744;37.578;2022-09-12T04:39:48;100016.63;;;16.55;39.18
42691;BME280;28306;55.744;37.578;2022-09-12T04:42:15;100012.72;;;16.51;39.33
42691;BME280;28306;55.744;37.578;2022-09-12T04:44:41;100019.31;;;16.55;39.30
42691;BME280;28306;55.744;37.578;2022-09-12T04:47:06;100025.34;;;16.57;39.31
42691;BME280;28306;55.744;37.578;2022-09-12T04:49:35;100019.13;;;16.56;39.22
42691;BME280;28306;55.744;37.578;2022-09-12T04:52:00;100013.75;;;16.56;39.23
42691;BME280;28306;55.744;37.578;2022-09-12T04:54:26;100017.28;;;16.57;39.29
42691;BME280;28306;55.744;37.578;2022-09-12T04:56:52;100017.28;;;16.57;39.16
42691;BME280;28306;55.744;37.578;2022-09-12T04:59:20;100018.94;;;16.58;39.25
42691;BME280;28306;55.744;37.578;2022-09-12T05:01:46;100017.91;;;16.59;39.32
42691;BME280;28306;55.744;37.578;2022-09-12T05:04:12;100015.22;;;16.59;39.22
42691;BME280;28306;55.744;37.578;2022-09-12T05:06:41;100016.44;;;16.56;39.35
42691;BME280;28306;55.744;37.578;2022-09-12T05:09:09;100017.72;;;16.61;39.28
42691;BME280;28306;55.744;37.578;2022-09-12T05:11:37;100025.56;;;16.62;39.21
42691;BME280;28306;55.744;37.578;2022-09-12T05:14:04;100020.19;;;16.62;39.20
42691;BME280;28306;55.744;37.578;2022-09-12T05:16:29;100023.50;;;16.64;39.29
42691;BME280;28306;55.744;37.578;2022-09-12T05:18:56;100029.53;;;16.66;39.24
42691;BME280;28306;55.744;37.578;2022-09-12T05:21:23;100024.97;;;16.67;39.04
42691;BME280;28306;55.744;37.578;2022-09-12T05:23:53;100006.34;;;16.58;39.01
42691;BME280;28306;55.744;37.578;2022-09-12T05:26:20;100007.56;;;16.63;39.27
42691;BME280;28306;55.744;37.578;2022-09-12T05:28:48;100022.50;;;16.72;39.68
42691;BME280;28306;55.744;37.578;2022-09-12T05:31:24;100020.47;;;16.74;39.59
42691;BME280;28306;55.744;37.578;2022-09-12T05:33:53;100011.94;;;16.70;39.50
42691;BME280;28306;55.744;37.578;2022-09-12T05:36:24;100023.97;;;16.74;39.43
42691;BME280;28306;55.744;37.578;2022-09-12T05:38:50;100016.50;;;16.76;39.32
42691;BME280;28306;55.744;37.578;2022-09-12T05:41:18;100016.50;;;16.76;39.32
42691;BME280;28306;55.744;37.578;2022-09-12T05:43:45;100012.81;;;16.78;39.15
42691;BME280;28306;55.744;37.578;2022-09-12T05:46:15;100013.63;;;16.78;39.01
42691;BME280;28306;55.744;37.578;2022-09-12T05:48:42;100003.94;;;16.77;39.19
42691;BME280;28306;55.744;37.578;2022-09-12T05:51:16;100012.41;;;16.81;39.15
42691;BME280;28306;55.744;37.578;2022-09-12T05:53:47;100013.22;;;16.81;38.95
42691;BME280;28306;55.744;37.578;2022-09-12T05:56:16;100014.03;;;16.82;39.04
42691;BME280;28306;55.744;37.578;2022-09-12T05:58:45;99999.56;;;16.76;39.11
42691;BME280;28306;55.744;37.578;2022-09-12T06:01:14;100004.97;;;16.83;38.88
42691;BME280;28306;55.744;37.578;2022-09-12T06:03:48;99970.56;;;16.58;38.96
42691;BME280;28306;55.744;37.578;2022-09-12T06:06:15;100003.09;;;16.83;38.70
42691;BME280;28306;55.744;37.578;2022-09-12T06:08:46;100001.47;;;16.82;38.90
42691;BME280;28306;55.744;37.578;2022-09-12T06:11:15;99994.81;;;16.85;38.90
42691;BME280;28306;55.744;37.578;2022-09-12T06:13:42;99985.94;;;16.78;38.79
42691;BME280;28306;55.744;37.578;2022-09-12T06:16:24;99996.31;;;16.87;38.91
42691;BME280;28306;55.744;37.578;2022-09-12T06:18:55;100002.31;;;16.89;38.80
42691;BME280;28306;55.744;37.578;2022-09-12T06:21:23;99995.31;;;16.88;38.87
42691;BME280;28306;55.744;37.578;2022-09-12T06:23:49;99999.03;;;16.94;38.78
42691;BME280;28306;55.744;37.578;2022-09-12T06:26:16;99999.03;;;16.94;38.68
42691;BME280;28306;55.744;37.578;2022-09-12T06:28:46;100004.63;;;16.99;38.63
42691;BME280;28306;55.744;37.578;2022-09-12T06:31:17;100006.28;;;17.00;38.67
42691;BME280;28306;55.744;37.578;2022-09-12T06:33:45;100000.91;;;17.00;38.59
42691;BME280;28306;55.744;37.578;2022-09-12T06:36:14;100009.59;;;17.02;38.40
42691;BME280;28306;55.744;37.578;2022-09-12T06:38:40;99999.47;;;17.04;38.54
42691;BME280;28306;55.744;37.578;2022-09-12T06:41:10;100000.09;;;17.06;38.44
42691;BME280;28306;55.744;37.578;2022-09-12T06:43:37;99997.59;;;17.05;38.46
42691;BME280;28306;55.744;37.578;2022-09-12T06:46:03;100002.16;;;17.11;38.51
42691;BME280;28306;55.744;37.578;2022-09-12T06:48:32;99999.88;;;17.15;38.38
42691;BME280;28306;55.744;37.578;2022-09-12T06:51:17;99993.28;;;17.17;38.23
42691;BME280;28306;55.744;37.578;2022-09-12T06:53:45;100004.84;;;17.18;38.56
42691;BME280;28306;55.744;37.578;2022-09-12T06:56:14;99988.50;;;17.13;38.52
42691;BME280;28306;55.744;37.578;2022-09-12T06:58:41;99988.50;;;17.13;38.28
42691;BME280;28306;55.744;37.578;2022-09-12T07:01:15;100006.72;;;17.24;38.29
42691;BME280;28306;55.744;37.578;2022-09-12T07:03:42;100007.56;;;17.24;38.37
42691;BME280;28306;55.744;37.578;2022-09-12T07:06:12;99978.56;;;17.06;38.21
42691;BME280;28306;55.744;37.578;2022-09-12T07:08:39;100002.81;;;17.26;38.19
42691;BME280;28306;55.744;37.578;2022-09-12T07:13:33;100000.94;;;17.27;38.08
42691;BME280;28306;55.744;37.578;2022-09-12T07:16:03;100001.13;;;17.25;38.18
42691;BME280;28306;55.744;37.578;2022-09-12T07:18:30;100015.00;;;17.36;37.97
42691;BME280;28306;55.744;37.578;2022-09-12T07:20:59;100011.50;;;17.35;38.12
42691;BME280;28306;55.744;37.578;2022-09-12T07:23:30;100022.06;;;17.43;38.28
42691;BME280;28306;55.744;37.578;2022-09-12T07:25:56;100018.09;;;17.46;37.94
42691;BME280;28306;55.744;37.578;2022-09-12T07:28:23;100020.38;;;17.49;37.79
42691;BME280;28306;55.744;37.578;2022-09-12T07:30:50;100010.69;;;17.41;37.89
42691;BME280;28306;55.744;37.578;2022-09-12T07:33:28;100026.81;;;17.55;38.09
42691;BME280;28306;55.744;37.578;2022-09-12T07:35:53;100017.91;;;17.54;37.86
42691;BME280;28306;55.744;37.578;2022-09-12T07:38:20;100010.88;;;17.60;37.84
42691;BME280;28306;55.744;37.578;2022-09-12T07:40:46;99988.75;;;17.44;37.87
42691;BME280;28306;55.744;37.578;2022-09-12T07:43:11;100021.22;;;17.63;37.81
42691;BME280;28306;55.744;37.578;2022-09-12T07:45:37;100024.75;;;17.63;38.00
42691;BME280;28306;55.744;37.578;2022-09-12T07:48:06;100021.00;;;17.64;37.83
42691;BME280;28306;55.744;37.578;2022-09-12T07:50:32;99999.72;;;17.50;37.73
42691;BME280;28306;55.744;37.578;2022-09-12T07:52:58;100023.50;;;17.66;37.86
42691;BME280;28306;55.744;37.578;2022-09-12T07:55:24;100016.25;;;17.60;38.07
42691;BME280;28306;55.744;37.578;2022-09-12T07:57:51;100033.03;;;17.69;37.82
42691;BME280;28306;55.744;37.578;2022-09-12T08:00:17;100029.50;;;17.68;37.65
42691;BME280;28306;55.744;37.578;2022-09-12T08:02:43;100026.41;;;17.71;37.99
42691;BME280;28306;55.744;37.578;2022-09-12T08:05:09;100024.94;;;17.75;37.82
42691;BME280;28306;55.744;37.578;2022-09-12T08:07:35;100026.59;;;17.76;37.67
42691;BME280;28306;55.744;37.578;2022-09-12T08:10:01;100020.19;;;17.77;37.59
42691;BME280;28306;55.744;37.578;2022-09-12T08:12:27;100005.72;;;17.65;37.66
42691;BME280;28306;55.744;37.578;2022-09-12T08:14:53;100020.59;;;17.68;37.56
42691;BME280;28306;55.744;37.578;2022-09-12T08:17:19;100033.22;;;17.80;37.80
42691;BME280;28306;55.744;37.578;2022-09-12T08:19:45;100038.38;;;17.82;37.57
42691;BME280;28306;55.744;37.578;2022-09-12T08:22:11;100035.47;;;17.83;37.61
42691;BME280;28306;55.744;37.578;2022-09-12T08:24:37;100035.28;;;17.78;37.91
42691;BME280;28306;55.744;37.578;2022-09-12T08:27:04;100041.72;;;17.84;37.80
42691;BME280;28306;55.744;37.578;2022-09-12T08:29:30;100006.94;;;17.62;38.02
42691;BME280;28306;55.744;37.578;2022-09-12T08:31:56;100032.19;;;17.81;37.76
42691;BME280;28306;55.744;37.578;2022-09-12T08:34:24;100029.06;;;17.84;37.81
42691;BME280;28306;55.744;37.578;2022-09-12T08:36:50;100025.78;;;17.82;37.83
42691;BME280;28306;55.744;37.578;2022-09-12T08:39:18;100030.75;;;17.86;37.69
42691;BME280;28306;55.744;37.578;2022-09-12T08:41:46;100034.69;;;17.90;37.51
42691;BME280;28306;55.744;37.578;2022-09-12T08:47:31;100023.72;;;17.98;37.72
42691;BME280;28306;55.744;37.578;2022-09-12T08:55:28;100023.09;;;18.03;37.51
42691;BME280;28306;55.744;37.578;2022-09-12T08:57:56;100018.72;;;18.01;37.36
42691;BME280;28306;55.744;37.578;2022-09-12T09:00:24;100020.41;;;18.03;37.46
42691;BME280;28306;55.744;37.578;2022-09-12T09:03:09;100021.19;;;18.10;37.65
42691;BME280;28306;55.744;37.578;2022-09-12T09:05:49;100019.09;;;18.12;37.32
42691;BME280;28306;55.744;37.578;2022-09-12T09:08:33;100017.47;;;18.11;37.50
42691;BME280;28306;55.744;37.578;2022-09-12T09:16:42;100017.84;;;18.21;37.12
42691;BME280;28306;55.744;37.578;2022-09-12T09:19:22;99996.53;;;18.13;37.31
42691;BME280;28306;55.744;37.578;2022-09-12T09:22:12;100005.22;;;18.22;37.40
42691;BME280;28306;55.744;37.578;2022-09-12T09:24:48;100017.00;;;18.27;37.03
42691;BME280;28306;55.744;37.578;2022-09-12T09:27:34;99999.63;;;18.23;37.17
42691;BME280;28306;55.744;37.578;2022-09-12T09:30:02;100011.59;;;18.27;37.15
42691;BME280;28306;55.744;37.578;2022-09-12T09:32:35;99996.09;;;18.23;37.15
42691;BME280;28306;55.744;37.578;2022-09-12T09:35:17;100013.47;;;18.33;36.92
42691;BME280;28306;55.744;37.578;2022-09-12T09:38:16;100020.91;;;18.38;36.96
42691;BME280;28306;55.744;37.578;2022-09-12T09:43:37;100012.81;;;18.38;36.76
42691;BME280;28306;55.744;37.578;2022-09-12T09:46:03;100010.75;;;18.33;36.88
42691;BME280;28306;55.744;37.578;2022-09-12T09:48:31;100014.69;;;18.37;37.01
42691;BME280;28306;55.744;37.578;2022-09-12T09:51:01;100016.16;;;18.40;36.48
42691;BME280;28306;55.744;37.578;2022-09-12T09:56:40;100022.94;;;18.49;36.88
42691;BME280;28306;55.744;37.578;2022-09-12T09:59:19;100018.59;;;18.48;36.83
42691;BME280;28306;55.744;37.578;2022-09-12T10:01:47;100015.28;;;18.46;36.69
42691;BME280;28306;55.744;37.578;2022-09-12T10:04:19;100021.28;;;18.48;36.85
42691;BME280;28306;55.744;37.578;2022-09-12T10:06:45;100016.50;;;18.50;36.80
42691;BME280;28306;55.744;37.578;2022-09-12T10:11:38;100014.19;;;18.54;36.63
42691;BME280;28306;55.744;37.578;2022-09-12T10:14:04;100015.66;;;18.57;36.61
42691;BME280;28306;55.744;37.578;2022-09-12T10:16:47;100015.44;;;18.58;36.71
42691;BME280;28306;55.744;37.578;2022-09-12T10:19:21;100024.13;;;18.67;36.64
42691;BME280;28306;55.744;37.578;2022-09-12T10:21:55;100008.59;;;18.62;36.53
42691;BME280;28306;55.744;37.578;2022-09-12T10:24:24;100017.06;;;18.66;36.30
42691;BME280;28306;55.744;37.578;2022-09-12T10:26:56;100017.66;;;18.75;36.40
42691;BME280;28306;55.744;37.578;2022-09-12T10:29:28;100018.88;;;18.79;36.49
42691;BME280;28306;55.744;37.578;2022-09-12T10:31:58;100011.00;;;18.77;36.46
42691;BME280;28306;55.744;37.578;2022-09-12T10:34:44;100014.72;;;18.83;36.41
42691;BME280;28306;55.744;37.578;2022-09-12T10:37:17;100015.53;;;18.83;36.47
42691;BME280;28306;55.744;37.578;2022-09-12T10:39:49;100021.28;;;19.00;36.20
42691;BME280;28306;55.744;37.578;2022-09-12T10:42:47;100017.13;;;18.98;36.16
42691;BME280;28306;55.744;37.578;2022-09-12T10:47:52;99995.22;;;18.81;36.19
42691;BME280;28306;55.744;37.578;2022-09-12T10:50:29;100021.75;;;18.90;36.20
42691;BME280;28306;55.744;37.578;2022-09-12T10:56:02;100007.41;;;18.97;36.14
42691;BME280;28306;55.744;37.578;2022-09-12T11:06:41;100014.59;;;19.09;36.05
42691;BME280;28306;55.744;37.578;2022-09-12T11:09:15;100011.13;;;19.27;35.96
42691;BME280;28306;55.744;37.578;2022-09-12T11:11:53;100005.56;;;19.22;35.74
42691;BME280;28306;55.744;37.578;2022-09-12T11:15:00;100005.13;;;19.25;35.63
42691;BME280;28306;55.744;37.578;2022-09-12T11:30:54;100003.75;;;19.41;35.76
42691;BME280;28306;55.744;37.578;2022-09-12T11:35:50;100007.31;;;19.42;35.37
42691;BME280;28306;55.744;37.578;2022-09-12T11:41:24;99988.41;;;19.42;35.28
42691;BME280;28306;55.744;37.578;2022-09-12T11:46:42;99986.69;;;19.48;35.47
42691;BME280;28306;55.744;37.578;2022-09-12T12:00:22;99993.41;;;19.38;35.54
42691;BME280;28306;55.744;37.578;2022-09-12T12:03:02;99983.06;;;19.35;35.52
42691;BME280;28306;55.744;37.578;2022-09-12T12:05:43;99979.97;;;19.32;35.51
42691;BME280;28306;55.744;37.578;2022-09-12T12:08:14;99979.81;;;19.26;35.66
42691;BME280;28306;55.744;37.578;2022-09-12T12:10:40;99976.72;;;19.23;35.56
42691;BME280;28306;55.744;37.578;2022-09-12T12:13:18;99982.94;;;19.23;35.59
42691;BME280;28306;55.744;37.578;2022-09-12T12:15:47;99978.22;;;19.19;35.62
42691;BME280;28306;55.744;37.578;2022-09-12T12:18:18;99971.38;;;19.16;35.75
42691;BME280;28306;55.744;37.578;2022-09-12T12:20:44;99944.53;;;19.03;35.79
42691;BME280;28306;55.744;37.578;2022-09-12T12:23:37;99958.91;;;19.15;35.86
42691;BME280;28306;55.744;37.578;2022-09-12T12:26:02;99969.13;;;19.13;35.84
42691;BME280;28306;55.744;37.578;2022-09-12T12:31:09;99967.00;;;19.15;35.70
42691;BME280;28306;55.744;37.578;2022-09-12T12:36:07;99960.75;;;19.21;35.70
42691;BME280;28306;55.744;37.578;2022-09-12T12:38:37;99959.28;;;19.25;35.59
42691;BME280;28306;55.744;37.578;2022-09-12T12:47:21;99953.50;;;19.47;35.49
42691;BME280;28306;55.744;37.578;2022-09-12T12:53:02;99950.28;;;19.57;35.37
42691;BME280;28306;55.744;37.578;2022-09-12T12:55:36;99959.03;;;19.52;35.25
42691;BME280;28306;55.744;37.578;2022-09-12T12:58:05;99956.78;;;19.49;35.29
42691;BME280;28306;55.744;37.578;2022-09-12T13:00:34;99956.19;;;19.47;35.37
42691;BME280;28306;55.744;37.578;2022-09-12T13:10:48;99950.63;;;19.42;35.27
42691;BME280;28306;55.744;37.578;2022-09-12T13:13:22;99948.53;;;19.44;35.05
42691;BME280;28306;55.744;37.578;2022-09-12T13:15:50;99941.47;;;19.43;35.27
42691;BME280;28306;55.744;37.578;2022-09-12T13:18:40;99940.88;;;19.41;35.17
42691;BME280;28306;55.744;37.578;2022-09-12T13:21:15;99938.78;;;19.43;35.12
42691;BME280;28306;55.744;37.578;2022-09-12T13:23:41;99953.09;;;19.43;35.22
42691;BME280;28306;55.744;37.578;2022-09-12T13:26:10;99951.84;;;19.46;35.27
42691;BME280;28306;55.744;37.578;2022-09-12T13:28:37;99944.31;;;19.48;35.18
42691;BME280;28306;55.744;37.578;2022-09-12T13:31:24;99938.81;;;19.61;35.13
42691;BME280;28306;55.744;37.578;2022-09-12T13:33:58;99944.59;;;19.65;34.97
42691;BME280;28306;55.744;37.578;2022-09-12T13:39:18;99954.25;;;19.98;34.81
42691;BME280;28306;55.744;37.578;2022-09-12T13:47:24;99933.44;;;20.17;34.09
42691;BME280;28306;55.744;37.578;2022-09-12T13:49:52;99937.06;;;20.11;34.29
42691;BME280;28306;55.744;37.578;2022-09-12T13:52:25;99942.94;;;20.08;34.45
42691;BME280;28306;55.744;37.578;2022-09-12T13:54:54;99929.50;;;20.01;34.43
42691;BME280;28306;55.744;37.578;2022-09-12T13:57:37;99917.28;;;19.98;34.51
42691;BME280;28306;55.744;37.578;2022-09-12T14:00:23;99925.66;;;20.09;34.58
42691;BME280;28306;55.744;37.578;2022-09-12T14:02:49;99923.94;;;20.14;34.26
42691;BME280;28306;55.744;37.578;2022-09-12T14:05:22;99923.06;;;20.32;33.62
42691;BME280;28306;55.744;37.578;2022-09-12T14:07:55;99934.91;;;20.50;33.91
42691;BME280;28306;55.744;37.578;2022-09-12T14:10:31;99928.31;;;20.64;33.31
42691;BME280;28306;55.744;37.578;2022-09-12T14:12:58;99930.69;;;20.84;33.35
42691;BME280;28306;55.744;37.578;2022-09-12T14:15:32;99929.94;;;21.08;32.79
42691;BME280;28306;55.744;37.578;2022-09-12T14:18:01;99918.19;;;21.14;32.59
42691;BME280;28306;55.744;37.578;2022-09-12T14:20:30;99937.03;;;21.32;32.48
42691;BME280;28306;55.744;37.578;2022-09-12T14:23:01;99930.44;;;21.40;32.46
42691;BME280;28306;55.744;37.578;2022-09-12T14:25:31;99941.53;;;21.50;31.88
42691;BME280;28306;55.744;37.578;2022-09-12T14:28:02;99942.81;;;21.59;32.17
42691;BME280;28306;55.744;37.578;2022-09-12T14:30:30;99924.56;;;21.55;31.79
42691;BME280;28306;55.744;37.578;2022-09-12T14:35:29;99923.63;;;21.73;31.76
42691;BME280;28306;55.744;37.578;2022-09-12T14:37:54;99932.44;;;21.80;31.71
42691;BME280;28306;55.744;37.578;2022-09-12T14:40:22;99939.84;;;21.85;31.65
42691;BME280;28306;55.744;37.578;2022-09-12T14:42:49;99937.84;;;21.80;31.49
42691;BME280;28306;55.744;37.578;2022-09-12T14:45:36;99939.06;;;21.72;31.66
42691;BME280;28306;55.744;37.578;2022-09-12T14:48:01;99931.84;;;21.42;32.01
42691;BME280;28306;55.744;37.578;2022-09-12T14:50:29;99935.25;;;21.26;32.29
42691;BME280;28306;55.744;37.578;2022-09-12T14:53:20;99935.84;;;21.16;32.09
42691;BME280;28306;55.744;37.578;2022-09-12T14:55:54;99943.34;;;21.02;32.60
42691;BME280;28306;55.744;37.578;2022-09-12T14:58:22;99936.84;;;20.92;32.95
42691;BME280;28306;55.744;37.578;2022-09-12T15:03:35;99942.31;;;20.73;32.96
42691;BME280;28306;55.744;37.578;2022-09-12T15:06:02;99944.06;;;20.67;33.10
42691;BME280;28306;55.744;37.578;2022-09-12T15:08:29;99940.38;;;20.62;33.59
42691;BME280;28306;55.744;37.578;2022-09-12T15:10:56;99945.88;;;20.55;33.30
42691;BME280;28306;55.744;37.578;2022-09-12T15:13:24;99944.66;;;20.51;33.38
42691;BME280;28306;55.744;37.578;2022-09-12T15:15:53;99940.28;;;20.38;33.31
42691;BME280;28306;55.744;37.578;2022-09-12T15:18:21;99946.72;;;20.37;33.60
42691;BME280;28306;55.744;37.578;2022-09-12T15:20:50;99959.41;;;20.37;33.56
42691;BME280;28306;55.744;37.578;2022-09-12T15:23:21;99935.69;;;20.20;33.53
42691;BME280;28306;55.744;37.578;2022-09-12T15:25:48;99952.44;;;20.29;33.71
42691;BME280;28306;55.744;37.578;2022-09-12T15:28:18;99958.75;;;20.23;33.58
42691;BME280;28306;55.744;37.578;2022-09-12T15:30:45;99957.63;;;20.12;33.67
42691;BME280;28306;55.744;37.578;2022-09-12T15:33:11;99962.81;;;20.13;33.60
42691;BME280;28306;55.744;37.578;2022-09-12T15:35:37;99961.00;;;20.07;33.85
42691;BME280;28306;55.744;37.578;2022-09-12T15:38:03;99961.44;;;20.04;33.78